Time;durP1;ratioP1;P1;durP2;ratioP2;P2;SDS_P1;SDS_P2;PMS_P1;PMS_P2;Temp;Humidity;BMP_temperature;BMP_pressure;BME280_temperature;BME280_humidity;BME280_pressure;Samples;Min_cycle;Max_cycle;Signal;HPM_P1;HPM_P2
2024/01/08 00:01:35;;;;;;;0.80;0.80;;;;;;;9.39;100.00;93864.38;5131750;27;20442;-53
2024/01/08 00:04:04;;;;;;;0.83;0.70;;;;;;;9.32;100.00;93862.13;5133336;27;20518;-53
2024/01/08 00:06:35;;;;;;;0.40;0.40;;;;;;;9.63;100.00;93872.06;5133229;27;20507;-52
2024/01/08 00:09:03;;;;;;;0.40;0.40;;;;;;;9.82;100.00;93876.13;5133254;27;20506;-52
2024/01/08 00:11:32;;;;;;;0.40;0.30;;;;;;;9.07;100.00;93753.53;5132824;27;20524;-53
2024/01/08 00:14:01;;;;;;;1.23;1.13;;;;;;;9.35;100.00;93866.84;5119671;27;20434;-58
2024/01/08 00:16:30;;;;;;;0.53;0.47;;;;;;;8.93;100.00;93890.91;5132981;27;20518;-53
2024/01/08 00:19:17;;;;;;;0.77;0.77;;;;;;;8.78;100.00;93841.00;5133211;27;20531;-53
2024/01/08 00:21:45;;;;;;;0.40;0.30;;;;;;;9.24;100.00;93891.91;5133286;27;20442;-52
2024/01/08 00:24:14;;;;;;;0.40;0.40;;;;;;;9.16;100.00;93884.66;5133112;27;20439;-53
2024/01/08 00:26:43;;;;;;;0.50;0.37;;;;;;;8.99;100.00;93829.00;5132600;27;20808;-53
2024/01/08 00:29:11;;;;;;;0.67;0.67;;;;;;;9.26;100.00;93881.06;5132236;27;20498;-53
2024/01/08 00:31:40;;;;;;;0.80;0.40;;;;;;;9.01;100.00;93882.31;5133124;27;20438;-53
2024/01/08 00:34:09;;;;;;;0.40;0.30;;;;;;;9.11;100.00;93886.66;5133147;27;20457;-53
2024/01/08 00:36:39;;;;;;;0.40;0.30;;;;;;;8.88;100.00;93843.47;5132601;27;20446;-53
2024/01/08 00:39:09;;;;;;;3.57;1.20;;;;;;;9.29;100.00;93898.94;5132661;27;20471;-53
2024/01/08 00:41:37;;;;;;;0.60;0.50;;;;;;;9.51;100.00;93904.34;5132402;27;20443;-53
2024/01/08 00:44:06;;;;;;;0.37;0.30;;;;;;;9.50;100.00;93892.19;5132722;27;20438;-53
2024/01/08 00:46:34;;;;;;;0.60;0.47;;;;;;;9.26;100.00;93899.56;5132495;27;20515;-53
2024/01/08 00:49:03;;;;;;;0.40;0.30;;;;;;;9.36;100.00;93904.66;5132844;27;20509;-53
2024/01/08 00:51:32;;;;;;;4.73;0.47;;;;;;;9.23;100.00;93908.06;5132718;27;20522;-53
2024/01/08 00:54:02;;;;;;;0.40;0.40;;;;;;;9.12;100.00;93904.84;5132774;27;20439;-53
2024/01/08 00:56:31;;;;;;;0.30;0.20;;;;;;;8.41;100.00;93852.53;5132856;27;20858;-53
2024/01/08 00:58:59;;;;;;;1.17;0.30;;;;;;;8.84;100.00;93884.75;5132888;27;20470;-53
2024/01/08 01:01:28;;;;;;;0.40;0.37;;;;;;;9.05;100.00;93896.53;5132500;27;20430;-53
2024/01/08 01:03:56;;;;;;;0.30;0.20;;;;;;;8.99;100.00;93915.41;5132154;27;20466;-53
2024/01/08 01:06:25;;;;;;;0.40;0.20;;;;;;;9.02;100.00;93905.03;5105771;28;20927;-53
2024/01/08 01:08:54;;;;;;;0.30;0.20;;;;;;;9.10;100.00;93912.28;5131844;28;20992;-53
2024/01/08 01:11:24;;;;;;;0.40;0.27;;;;;;;9.05;100.00;93911.59;5132280;27;20438;-53
2024/01/08 01:13:53;;;;;;;0.30;0.20;;;;;;;8.94;100.00;93882.72;5131881;27;20438;-54
2024/01/08 01:16:26;;;;;;;0.30;0.20;;;;;;;9.09;100.00;93916.00;5132900;28;20513;-54
2024/01/08 01:18:55;;;;;;;0.30;0.20;;;;;;;8.97;100.00;93899.84;5132498;27;20442;-53
2024/01/08 01:21:23;;;;;;;0.40;0.37;;;;;;;9.06;100.00;93902.59;5132938;28;20438;-54
2024/01/08 01:23:52;;;;;;;0.30;0.20;;;;;;;8.95;100.00;93896.72;5132598;27;20430;-53
2024/01/08 01:26:21;;;;;;;0.50;0.30;;;;;;;9.00;100.00;93901.13;5132646;27;20438;-53
2024/01/08 01:28:51;;;;;;;0.40;0.30;;;;;;;8.87;100.00;93895.53;5131743;28;20514;-53
2024/01/08 01:31:20;;;;;;;0.30;0.20;;;;;;;9.06;100.00;93899.97;5132615;28;20470;-53
2024/01/08 01:33:48;;;;;;;0.40;0.20;;;;;;;8.93;100.00;93886.44;5132320;27;20433;-53
2024/01/08 01:36:17;;;;;;;0.30;0.20;;;;;;;8.65;100.00;93855.78;5132070;28;21007;-53
2024/01/08 01:38:46;;;;;;;0.40;0.30;;;;;;;9.11;100.00;93891.94;5130760;27;20438;-53
2024/01/08 01:41:14;;;;;;;0.30;0.20;;;;;;;9.19;100.00;93894.66;5132454;28;20943;-53
2024/01/08 01:43:43;;;;;;;0.40;0.20;;;;;;;9.11;100.00;93886.66;5131833;27;20431;-53
2024/01/08 01:46:21;;;;;;;0.30;0.20;;;;;;;9.00;100.00;93896.63;5132233;27;21003;-53
2024/01/08 01:48:50;;;;;;;0.80;0.47;;;;;;;9.16;100.00;93891.84;5132532;27;20434;-53
2024/01/08 01:51:19;;;;;;;0.30;0.30;;;;;;;9.09;100.00;93900.13;5131592;27;20441;-53
2024/01/08 01:53:49;;;;;;;2.10;0.30;;;;;;;9.19;100.00;93897.28;5132006;27;20916;-53
2024/01/08 01:56:18;;;;;;;0.40;0.30;;;;;;;8.97;100.00;93910.41;5131444;27;20443;-53
2024/01/08 01:58:47;;;;;;;0.40;0.30;;;;;;;8.94;100.00;93901.22;5131417;27;20466;-53
2024/01/08 02:01:16;;;;;;;0.30;0.20;;;;;;;9.12;100.00;93904.84;5131388;27;20435;-53
2024/01/08 02:03:47;;;;;;;0.40;0.27;;;;;;;8.85;100.00;93908.22;5132056;27;20438;-53
2024/01/08 02:06:19;;;;;;;0.40;0.30;;;;;;;9.06;100.00;93878.81;5131536;28;20927;-54
2024/01/08 02:08:48;;;;;;;0.83;0.20;;;;;;;9.31;100.00;93910.78;5132259;27;20435;-53
2024/01/08 02:11:18;;;;;;;0.40;0.30;;;;;;;9.22;100.00;93906.50;5132262;27;20965;-54
2024/01/08 02:13:47;;;;;;;0.70;0.40;;;;;;;9.02;100.00;93906.88;5132173;28;20450;-54
2024/01/08 02:16:17;;;;;;;0.30;0.20;;;;;;;9.12;100.00;93910.13;5131630;27;20922;-54
2024/01/08 02:18:47;;;;;;;0.80;0.80;;;;;;;8.98;100.00;93924.41;5130955;28;20442;-54
2024/01/08 02:21:16;;;;;;;0.47;0.30;;;;;;;9.07;100.00;93922.66;5131519;28;20451;-54
2024/01/08 02:23:46;;;;;;;0.40;0.20;;;;;;;8.97;100.00;93934.19;5131627;27;20898;-54
2024/01/08 02:26:17;;;;;;;0.30;0.20;;;;;;;8.77;100.00;93931.91;5134766;27;20446;-54
2024/01/08 02:28:46;;;;;;;0.30;0.23;;;;;;;8.58;100.00;93929.31;5133994;27;20431;-54
2024/01/08 02:31:14;;;;;;;0.30;0.20;;;;;;;8.79;100.00;93927.13;5135393;27;21030;-54
2024/01/08 02:33:43;;;;;;;0.40;0.30;;;;;;;8.83;100.00;93931.53;5134206;27;20430;-54
2024/01/08 02:36:11;;;;;;;0.30;0.20;;;;;;;8.92;100.00;93932.44;5135529;27;20454;-54
2024/01/08 02:38:40;;;;;;;0.30;0.20;;;;;;;9.15;100.00;93937.81;5134966;27;20914;-54
2024/01/08 02:41:10;;;;;;;0.30;0.20;;;;;;;9.27;100.00;93948.69;5126802;27;20957;-54
2024/01/08 02:43:39;;;;;;;0.30;0.20;;;;;;;9.28;100.00;93951.06;5134397;27;20918;-54
2024/01/08 02:46:08;;;;;;;0.30;0.20;;;;;;;9.36;100.00;93950.34;5134756;27;20495;-54
2024/01/08 02:48:36;;;;;;;0.77;0.30;;;;;;;9.36;100.00;93957.53;5134939;27;20470;-54
2024/01/08 02:51:05;;;;;;;0.30;0.20;;;;;;;9.36;100.00;93952.22;5134657;27;20473;-54
2024/01/08 02:53:34;;;;;;;0.73;0.30;;;;;;;9.34;100.00;93967.59;5121033;27;20542;-54
2024/01/08 02:56:02;;;;;;;0.50;0.50;;;;;;;9.21;100.00;93955.16;5133715;27;20439;-54
2024/01/08 02:58:32;;;;;;;0.50;0.50;;;;;;;9.17;100.00;93977.97;5134290;27;20816;-54
2024/01/08 03:01:01;;;;;;;0.30;0.20;;;;;;;9.14;100.00;93960.03;5134444;27;20437;-54
2024/01/08 03:03:30;;;;;;;0.30;0.20;;;;;;;9.20;100.00;93975.53;5133284;27;20442;-54
2024/01/08 03:05:58;;;;;;;0.30;0.20;;;;;;;9.19;100.00;93967.88;5133481;27;20523;-54
2024/01/08 03:08:27;;;;;;;0.30;0.20;;;;;;;8.90;100.00;93952.28;5134102;27;20441;-54
2024/01/08 03:10:56;;;;;;;0.30;0.20;;;;;;;9.16;100.00;93986.97;5133702;27;20462;-54
2024/01/08 03:13:24;;;;;;;0.30;0.20;;;;;;;8.87;100.00;93988.00;5134893;27;20867;-54
2024/01/08 03:15:54;;;;;;;0.50;0.30;;;;;;;8.72;100.00;93990.91;5134229;27;20442;-54
2024/01/08 03:18:23;;;;;;;0.30;0.20;;;;;;;8.40;100.00;93918.84;5134204;27;20431;-54
2024/01/08 03:20:52;;;;;;;0.30;0.23;;;;;;;9.04;100.00;93990.09;5134228;27;20466;-54
2024/01/08 03:23:20;;;;;;;0.30;0.20;;;;;;;9.03;100.00;93988.53;5133773;27;20447;-55
2024/01/08 03:25:49;;;;;;;0.30;0.20;;;;;;;8.99;100.00;93970.88;5134723;27;20457;-54
2024/01/08 03:28:18;;;;;;;0.40;0.30;;;;;;;9.22;100.00;93983.16;5134377;27;20435;-54
2024/01/08 03:30:46;;;;;;;0.40;0.27;;;;;;;8.89;100.00;93985.84;5133619;27;20478;-53
2024/01/08 03:33:16;;;;;;;0.40;0.20;;;;;;;9.01;100.00;93988.00;5134260;27;20461;-53
2024/01/08 03:35:45;;;;;;;0.50;0.50;;;;;;;9.03;100.00;93985.09;5133074;27;20438;-53
2024/01/08 03:38:14;;;;;;;0.40;0.23;;;;;;;9.00;100.00;93986.47;5132931;27;20433;-53
2024/01/08 03:40:43;;;;;;;0.30;0.20;;;;;;;8.56;100.00;93914.84;5133130;27;20536;-53
2024/01/08 03:43:12;;;;;;;0.37;0.27;;;;;;;8.92;100.00;93989.78;5133876;27;20441;-53
2024/01/08 03:45:41;;;;;;;0.50;0.40;;;;;;;8.84;100.00;93983.28;5133652;27;20518;-53
2024/01/08 03:48:09;;;;;;;0.40;0.30;;;;;;;8.65;100.00;93989.72;5133195;27;21003;-53
2024/01/08 03:50:39;;;;;;;0.30;0.20;;;;;;;8.61;100.00;93994.78;5133433;27;20465;-54
2024/01/08 03:53:08;;;;;;;0.60;0.50;;;;;;;8.63;100.00;93997.13;5132823;27;20501;-53
2024/01/08 03:55:37;;;;;;;1.07;0.97;;;;;;;8.54;100.00;93951.31;5133690;27;20495;-54
2024/01/08 03:58:06;;;;;;;0.50;0.50;;;;;;;9.05;100.00;94006.72;5133324;27;20435;-53
2024/01/08 04:00:35;;;;;;;0.40;0.40;;;;;;;9.12;100.00;94015.84;5133612;27;20441;-54
2024/01/08 04:03:04;;;;;;;0.40;0.30;;;;;;;9.05;100.00;94019.94;5132564;27;20439;-53
2024/01/08 04:05:32;;;;;;;0.43;0.40;;;;;;;9.08;100.00;94019.38;5132815;27;20434;-53
2024/01/08 04:08:03;;;;;;;0.40;0.27;;;;;;;8.60;100.00;93958.84;5132972;27;20517;-53
2024/01/08 04:10:32;;;;;;;0.40;0.30;;;;;;;9.17;100.00;94022.91;5133060;27;20474;-53
2024/01/08 04:13:00;;;;;;;0.60;0.60;;;;;;;8.88;100.00;93971.06;5133555;27;20449;-54
2024/01/08 04:15:29;;;;;;;1.27;0.43;;;;;;;9.18;100.00;94019.19;5132525;27;20964;-54
2024/01/08 04:17:57;;;;;;;0.40;0.40;;;;;;;8.78;100.00;94042.56;5106969;27;20437;-53
2024/01/08 04:20:26;;;;;;;0.40;0.40;;;;;;;8.42;100.00;94046.84;5132644;27;20812;-54
2024/01/08 04:22:55;;;;;;;0.53;0.50;;;;;;;8.14;100.00;93974.63;5132850;27;20434;-53
2024/01/08 04:25:25;;;;;;;1.00;1.00;;;;;;;8.81;100.00;94044.63;5131272;27;20443;-53
2024/01/08 04:27:54;;;;;;;0.60;0.60;;;;;;;8.54;100.00;94004.13;5132608;27;20438;-54
2024/01/08 04:30:22;;;;;;;0.50;0.50;;;;;;;8.82;100.00;94043.56;5131315;27;20438;-53
2024/01/08 04:32:51;;;;;;;0.60;0.43;;;;;;;8.92;100.00;94050.53;5132286;27;21038;-53
2024/01/08 04:35:20;;;;;;;0.43;0.30;;;;;;;8.94;100.00;94046.53;5131730;27;20462;-53
2024/01/08 04:37:49;;;;;;;1.43;1.43;;;;;;;8.87;100.00;94053.25;5132169;27;20977;-54
2024/01/08 04:40:18;;;;;;;0.77;0.77;;;;;;;8.76;100.00;94052.63;5131594;27;20473;-53
2024/01/08 04:42:48;;;;;;;0.50;0.40;;;;;;;8.87;100.00;94061.19;5132185;27;20442;-53
2024/01/08 04:45:18;;;;;;;0.30;0.30;;;;;;;8.91;100.00;94056.88;5132566;27;20958;-53
2024/01/08 04:47:47;;;;;;;0.70;0.70;;;;;;;8.60;100.00;94024.88;5131902;27;20438;-53
2024/01/08 04:50:16;;;;;;;0.50;0.30;;;;;;;8.91;100.00;94065.59;5132199;27;20453;-54
2024/01/08 04:52:45;;;;;;;0.73;0.50;;;;;;;8.91;100.00;94067.44;5131384;27;20993;-54
2024/01/08 04:55:14;;;;;;;0.30;0.30;;;;;;;8.80;100.00;94056.25;5106060;27;20445;-54
2024/01/08 04:57:42;;;;;;;0.63;0.50;;;;;;;8.71;100.00;94068.56;5132519;27;20447;-54
2024/01/08 05:00:14;;;;;;;0.40;0.30;;;;;;;8.52;100.00;94088.94;5132422;27;20449;-54
2024/01/08 05:02:43;;;;;;;0.60;0.60;;;;;;;8.61;100.00;94078.50;5132114;27;20438;-53
2024/01/08 05:05:12;;;;;;;0.83;0.80;;;;;;;8.56;100.00;94060.88;5132360;27;20434;-53
2024/01/08 05:07:40;;;;;;;0.50;0.40;;;;;;;8.40;100.00;94064.78;5132013;27;20485;-55
2024/01/08 05:10:09;;;;;;;0.60;0.60;;;;;;;8.61;100.00;94089.06;5132555;27;20435;-53
2024/01/08 05:12:38;;;;;;;0.87;0.87;;;;;;;8.64;100.00;94088.47;5132078;28;20919;-54
2024/01/08 05:15:08;;;;;;;6.93;0.80;;;;;;;8.46;100.00;94083.97;5132119;27;20438;-54
2024/01/08 05:17:38;;;;;;;0.87;0.80;;;;;;;8.58;100.00;94089.63;5131753;28;20518;-54
2024/01/08 05:20:09;;;;;;;1.43;0.83;;;;;;;8.63;100.00;94108.81;5131792;28;20438;-54
2024/01/08 05:22:38;;;;;;;1.30;1.20;;;;;;;8.44;100.00;94097.47;5117564;27;20446;-54
2024/01/08 05:25:08;;;;;;;1.50;0.63;;;;;;;8.31;100.00;94106.09;5132209;27;20517;-54
2024/01/08 05:27:36;;;;;;;1.40;1.30;;;;;;;8.34;100.00;94097.63;5131735;27;20431;-55
2024/01/08 05:30:06;;;;;;;2.73;1.17;;;;;;;8.30;100.00;94100.03;5131228;27;20442;-54
2024/01/08 05:32:35;;;;;;;0.40;0.40;;;;;;;8.10;100.00;94059.88;5124688;28;20475;-54
2024/01/08 05:35:06;;;;;;;0.70;0.70;;;;;;;8.62;100.00;94109.91;5111270;28;20478;-54
2024/01/08 05:37:35;;;;;;;1.57;1.57;;;;;;;8.54;100.00;94092.06;5109324;28;20467;-54
2024/01/08 05:40:04;;;;;;;1.03;0.70;;;;;;;8.61;100.00;94105.69;5111286;28;20441;-55
2024/01/08 05:42:33;;;;;;;0.40;0.40;;;;;;;8.54;100.00;94081.50;5111202;28;20922;-54
2024/01/08 05:45:02;;;;;;;0.60;0.40;;;;;;;8.53;100.00;94101.03;5111112;28;20527;-54
2024/01/08 05:47:30;;;;;;;0.50;0.50;;;;;;;8.20;100.00;94107.25;5126563;28;20922;-54
2024/01/08 05:49:59;;;;;;;1.53;1.10;;;;;;;8.14;100.00;94113.69;5131795;27;20468;-54
2024/01/08 05:52:29;;;;;;;2.23;1.37;;;;;;;7.97;100.00;94116.00;5130828;28;20486;-55
2024/01/08 05:54:58;;;;;;;1.00;1.00;;;;;;;7.62;100.00;94062.59;5131324;27;20487;-54
2024/01/08 05:57:26;;;;;;;0.50;0.50;;;;;;;8.06;100.00;94117.72;5130608;27;20434;-53
2024/01/08 05:59:55;;;;;;;0.77;0.77;;;;;;;8.08;100.00;94112.16;5135048;27;20980;-54
2024/01/08 06:02:23;;;;;;;3.10;1.00;;;;;;;8.25;100.00;94113.25;5121977;27;20434;-53
2024/01/08 06:04:52;;;;;;;6.83;1.53;;;;;;;8.29;100.00;94124.88;5135410;27;20972;-54
2024/01/08 06:07:21;;;;;;;1.13;1.13;;;;;;;8.26;100.00;94124.63;5135297;27;20952;-53
2024/01/08 06:09:51;;;;;;;1.83;1.73;;;;;;;8.14;100.00;94132.16;5136007;27;20442;-54
2024/01/08 06:12:20;;;;;;;1.03;1.03;;;;;;;8.30;100.00;94141.47;5135595;27;20539;-53
2024/01/08 06:14:49;;;;;;;1.77;1.67;;;;;;;8.40;100.00;94149.25;5135399;27;20438;-54
2024/01/08 06:17:18;;;;;;;1.07;1.07;;;;;;;7.98;100.00;94070.06;5135338;27;20438;-54
2024/01/08 06:19:47;;;;;;;1.10;1.10;;;;;;;8.51;100.00;94149.94;5135619;27;20458;-54
2024/01/08 06:22:15;;;;;;;1.07;1.07;;;;;;;8.47;100.00;94141.00;5134955;27;20858;-54
2024/01/08 06:24:44;;;;;;;0.70;0.70;;;;;;;8.50;100.00;94161.56;5135443;27;20900;-54
2024/01/08 06:27:14;;;;;;;0.60;0.57;;;;;;;8.06;100.00;94169.72;5135213;27;20438;-53
2024/01/08 06:29:43;;;;;;;1.23;1.23;;;;;;;7.95;100.00;94118.13;5135875;27;20931;-54
2024/01/08 06:32:12;;;;;;;2.43;2.33;;;;;;;8.19;100.00;94177.75;5135490;27;20618;-54
2024/01/08 06:34:41;;;;;;;1.73;1.17;;;;;;;8.15;100.00;94189.13;5134533;27;21040;-54
2024/01/08 06:37:09;;;;;;;2.80;1.40;;;;;;;8.50;100.00;94180.06;5134317;27;20926;-54
2024/01/08 06:39:38;;;;;;;1.83;1.73;;;;;;;8.64;100.00;94183.56;5135151;27;20961;-53
2024/01/08 06:42:07;;;;;;;1.57;1.47;;;;;;;8.67;100.00;94183.78;5135339;27;20438;-54
2024/01/08 06:44:37;;;;;;;2.80;2.60;;;;;;;8.68;100.00;94187.97;5134911;27;20453;-54
2024/01/08 06:47:06;;;;;;;3.50;3.30;;;;;;;8.73;100.00;94166.00;5135093;27;20430;-54
2024/01/08 06:49:35;;;;;;;4.20;3.37;;;;;;;9.03;100.00;94188.56;5135125;27;21027;-54
2024/01/08 06:52:04;;;;;;;9.83;2.20;;;;;;;9.09;100.00;94195.34;5134713;27;20521;-54
2024/01/08 06:54:32;;;;;;;3.03;2.77;;;;;;;9.17;100.00;94197.34;5134375;27;20487;-54
2024/01/08 06:57:02;;;;;;;2.00;1.90;;;;;;;8.91;100.00;94157.28;5134858;27;20856;-54
2024/01/08 06:59:31;;;;;;;1.60;1.50;;;;;;;9.34;100.00;94208.19;5133915;27;20449;-54
2024/01/08 07:02:01;;;;;;;5.40;1.70;;;;;;;9.36;100.00;94214.00;5135051;27;20443;-54
2024/01/08 07:04:30;;;;;;;1.20;1.10;;;;;;;9.19;100.00;94203.91;5134152;27;20510;-54
2024/01/08 07:06:58;;;;;;;0.73;0.73;;;;;;;9.43;100.00;94222.34;5134695;27;20503;-54
2024/01/08 07:09:27;;;;;;;1.30;1.30;;;;;;;9.49;100.00;94221.97;5134621;27;20438;-54
2024/01/08 07:11:56;;;;;;;1.90;1.03;;;;;;;9.55;100.00;94231.41;5133976;27;20480;-54
2024/01/08 07:14:24;;;;;;;0.80;0.73;;;;;;;9.54;100.00;94229.03;5134604;27;20445;-54
2024/01/08 07:16:53;;;;;;;1.40;1.30;;;;;;;9.77;100.00;94245.84;5134047;27;20445;-54
2024/01/08 07:19:23;;;;;;;1.23;1.23;;;;;;;9.86;100.00;94242.28;5133376;27;20477;-54
2024/01/08 07:21:52;;;;;;;1.00;0.73;;;;;;;9.90;100.00;94245.91;5133800;27;20812;-54
2024/01/08 07:24:21;;;;;;;2.73;1.40;;;;;;;10.06;100.00;94255.16;5133433;27;20426;-53
2024/01/08 07:26:49;;;;;;;2.07;1.97;;;;;;;10.06;100.00;94260.47;5133813;27;20434;-53
2024/01/08 07:29:18;;;;;;;13.20;2.73;;;;;;;10.17;100.00;94264.50;5134185;27;20442;-53
2024/01/08 07:31:47;;;;;;;11.93;1.53;;;;;;;10.29;100.00;94271.22;5133529;27;20452;-52
2024/01/08 07:34:15;;;;;;;2.63;2.53;;;;;;;10.27;100.00;94278.66;5131976;27;20474;-52
2024/01/08 07:36:45;;;;;;;1.97;1.87;;;;;;;10.27;100.00;94260.13;5115270;27;20500;-53
2024/01/08 07:39:14;;;;;;;1.73;1.63;;;;;;;10.42;100.00;94244.75;5134046;27;20438;-53
2024/01/08 07:41:45;;;;;;;1.77;1.67;;;;;;;10.63;100.00;94282.22;5133848;27;20518;-53
2024/01/08 07:44:14;;;;;;;3.20;1.53;;;;;;;10.64;100.00;94289.09;5134262;27;20450;-54
2024/01/08 07:46:43;;;;;;;1.37;1.37;;;;;;;10.11;100.00;94204.78;5133962;27;20435;-54
2024/01/08 07:49:11;;;;;;;1.57;1.47;;;;;;;10.31;100.00;94247.88;5133142;27;20430;-54
2024/01/08 07:51:40;;;;;;;1.33;1.23;;;;;;;10.57;100.00;94292.16;5128760;27;20949;-54
2024/01/08 07:54:11;;;;;;;2.57;2.33;;;;;;;10.73;100.00;94295.28;5134224;27;20478;-55
2024/01/08 07:56:39;;;;;;;3.17;1.10;;;;;;;10.87;100.00;94295.28;5134195;27;20442;-55
2024/01/08 07:59:24;;;;;;;8.60;1.53;;;;;;;10.89;100.00;94285.94;5133494;27;20525;-53
2024/01/08 08:01:52;;;;;;;2.33;1.40;;;;;;;11.05;100.00;94299.69;5133407;27;20437;-54
2024/01/08 08:04:22;;;;;;;1.47;1.37;;;;;;;10.97;100.00;94266.72;5133996;27;20438;-53
2024/01/08 08:06:50;;;;;;;3.60;0.83;;;;;;;11.22;100.00;94297.22;5132316;27;20453;-53
2024/01/08 08:09:20;;;;;;;1.57;1.17;;;;;;;11.29;100.00;94303.69;5133457;27;20430;-53
2024/01/08 08:11:50;;;;;;;1.47;1.37;;;;;;;11.33;100.00;94304.63;5133442;27;20435;-54
2024/01/08 08:14:18;;;;;;;1.70;1.60;;;;;;;11.41;100.00;94311.91;5132987;27;20566;-54
2024/01/08 08:16:47;;;;;;;3.10;0.53;;;;;;;11.02;100.00;94282.50;5131862;27;20525;-54
2024/01/08 08:19:16;;;;;;;4.27;1.50;;;;;;;10.79;100.00;94219.91;5130838;27;20430;-54
2024/01/08 08:21:45;;;;;;;1.57;1.47;;;;;;;11.13;100.00;94270.59;5130550;27;20504;-54
2024/01/08 08:24:17;;;;;;;0.73;0.73;;;;;;;11.66;100.00;94317.75;5130760;27;20442;-54
2024/01/08 08:26:47;;;;;;;0.40;0.33;;;;;;;12.25;100.00;94319.28;5131294;27;20805;-54
2024/01/08 08:29:16;;;;;;;0.47;0.30;;;;;;;12.08;100.00;94280.13;5131664;27;20434;-54
2024/01/08 08:31:45;;;;;;;0.60;0.40;;;;;;;12.69;93.51;94328.00;5131956;27;20446;-54
2024/01/08 08:34:13;;;;;;;0.40;0.30;;;;;;;12.71;87.87;94333.78;5132520;27;20994;-54
2024/01/08 08:36:43;;;;;;;0.40;0.40;;;;;;;13.07;86.59;94332.88;5132641;27;20441;-55
2024/01/08 08:39:15;;;;;;;0.60;0.60;;;;;;;13.64;89.01;94330.94;5132847;27;20488;-55
2024/01/08 08:41:45;;;;;;;2.43;0.50;;;;;;;14.43;85.13;94342.09;5132252;27;20520;-53
2024/01/08 08:44:15;;;;;;;0.40;0.30;;;;;;;14.76;83.79;94339.66;5132968;27;20435;-55
2024/01/08 08:46:46;;;;;;;0.50;0.50;;;;;;;14.59;80.66;94340.50;5132450;27;20438;-55
2024/01/08 08:49:16;;;;;;;0.40;0.30;;;;;;;14.63;76.54;94336.09;5132780;27;20441;-54
2024/01/08 08:51:46;;;;;;;2.43;0.70;;;;;;;14.72;76.93;94339.53;5132314;27;20496;-54
2024/01/08 08:54:14;;;;;;;0.40;0.40;;;;;;;15.15;77.52;94339.38;5131058;27;20478;-54
2024/01/08 08:56:43;;;;;;;1.30;1.30;;;;;;;14.49;80.72;94322.97;5131452;27;20443;-54
2024/01/08 08:59:12;;;;;;;4.00;0.83;;;;;;;14.37;82.15;94332.72;5132328;27;20526;-55
2024/01/08 09:01:43;;;;;;;0.83;0.33;;;;;;;14.44;80.74;94349.00;5105789;27;20434;-55
2024/01/08 09:04:12;;;;;;;2.00;0.50;;;;;;;14.40;78.11;94350.72;5132394;27;20446;-54
2024/01/08 09:06:41;;;;;;;0.60;0.50;;;;;;;14.38;78.89;94351.03;5132334;27;21046;-54
2024/01/08 09:09:11;;;;;;;0.53;0.50;;;;;;;13.48;80.85;94289.91;5132342;27;20427;-55
2024/01/08 09:11:40;;;;;;;1.70;0.90;;;;;;;13.55;82.43;94349.59;5132761;27;20431;-55
2024/01/08 09:14:09;;;;;;;1.13;0.90;;;;;;;13.98;83.34;94352.28;5132285;27;20508;-55
2024/01/08 09:16:38;;;;;;;1.23;0.57;;;;;;;14.07;83.95;94342.41;5132103;28;20438;-56
2024/01/08 09:19:08;;;;;;;0.77;0.77;;;;;;;14.04;85.55;94342.25;5132050;28;20495;-55
2024/01/08 09:21:37;;;;;;;0.60;0.60;;;;;;;14.19;84.54;94347.13;5132665;27;20442;-56
2024/01/08 09:24:07;;;;;;;1.53;1.00;;;;;;;13.97;82.50;94345.38;5132197;27;20433;-56
2024/01/08 09:26:36;;;;;;;1.13;0.50;;;;;;;13.78;84.71;94351.03;5132572;27;20462;-56
2024/01/08 09:29:05;;;;;;;0.70;0.63;;;;;;;13.84;83.75;94333.78;5131159;28;20954;-55
2024/01/08 09:31:34;;;;;;;0.80;0.80;;;;;;;14.34;79.12;94322.66;5131872;27;20442;-55
2024/01/08 09:34:02;;;;;;;3.50;0.60;;;;;;;14.05;79.93;94341.94;5133281;27;20553;-56
2024/01/08 09:36:33;;;;;;;0.63;0.63;;;;;;;13.77;79.89;94351.31;5136391;27;20438;-56
2024/01/08 09:39:02;;;;;;;2.10;0.67;;;;;;;13.75;78.81;94354.31;5136042;27;20449;-56
2024/01/08 09:41:31;;;;;;;1.97;0.40;;;;;;;13.90;80.57;94356.50;5135884;27;21037;-56
2024/01/08 09:44:04;;;;;;;0.40;0.30;;;;;;;13.79;76.40;94346.47;5136307;27;20667;-56
2024/01/08 09:46:37;;;;;;;0.80;0.60;;;;;;;14.22;77.40;94349.16;5135884;27;20445;-56
2024/01/08 09:49:06;;;;;;;0.50;0.33;;;;;;;14.39;78.05;94341.16;5135017;27;20446;-56
2024/01/08 09:51:36;;;;;;;0.50;0.50;;;;;;;14.56;77.86;94341.13;5132942;27;20445;-57
2024/01/08 09:54:05;;;;;;;3.60;1.00;;;;;;;14.68;75.77;94346.59;5135754;27;20509;-55
2024/01/08 09:56:34;;;;;;;0.80;0.30;;;;;;;14.85;72.60;94337.75;5135542;27;20490;-55
2024/01/08 09:59:02;;;;;;;0.40;0.40;;;;;;;14.70;73.96;94336.38;5109731;27;20434;-55
2024/01/08 10:01:31;;;;;;;0.63;0.60;;;;;;;14.60;71.70;94318.03;5135555;27;20442;-55
2024/01/08 10:04:01;;;;;;;0.60;0.50;;;;;;;14.80;71.57;94340.59;5135061;27;20934;-55
2024/01/08 10:06:30;;;;;;;0.50;0.30;;;;;;;14.75;70.44;94340.78;5134517;27;20517;-55
2024/01/08 10:09:00;;;;;;;0.40;0.30;;;;;;;14.67;71.36;94336.25;5135123;27;20438;-56
2024/01/08 10:11:29;;;;;;;1.00;1.00;;;;;;;14.19;72.81;94275.16;5108925;27;20484;-56
2024/01/08 10:13:57;;;;;;;0.40;0.20;;;;;;;13.95;73.01;94345.72;5135072;27;20539;-57
2024/01/08 10:16:27;;;;;;;0.80;0.80;;;;;;;13.82;75.94;94335.97;5134878;27;20806;-56
2024/01/08 10:19:17;;;;;;;0.60;0.60;;;;;;;13.77;76.68;94338.81;5134575;27;20456;-55
2024/01/08 10:21:46;;;;;;;0.83;0.80;;;;;;;13.60;77.01;94332.66;5135290;27;20439;-56
2024/01/08 10:24:17;;;;;;;0.50;0.50;;;;;;;13.91;77.56;94339.41;5135169;27;20434;-56
2024/01/08 10:26:46;;;;;;;0.63;0.50;;;;;;;13.96;77.93;94328.59;5135967;27;20462;-56
2024/01/08 10:29:15;;;;;;;0.93;0.83;;;;;;;13.78;79.37;94315.63;5108951;27;20866;-56
2024/01/08 10:31:45;;;;;;;0.80;0.77;;;;;;;14.13;77.67;94330.50;5135363;27;20438;-54
2024/01/08 10:34:15;;;;;;;0.40;0.40;;;;;;;14.11;76.74;94332.69;5135091;27;20857;-55
2024/01/08 10:36:44;;;;;;;0.40;0.37;;;;;;;14.36;75.69;94328.47;5134844;27;20533;-55
2024/01/08 10:39:13;;;;;;;0.50;0.40;;;;;;;14.10;77.10;94322.34;5134952;27;20514;-55
2024/01/08 10:41:43;;;;;;;0.40;0.33;;;;;;;13.73;77.18;94323.75;5134490;27;20590;-55
2024/01/08 10:44:12;;;;;;;0.83;0.67;;;;;;;13.84;77.17;94327.66;5134241;27;20525;-55
2024/01/08 10:46:49;;;;;;;0.47;0.40;;;;;;;13.38;77.05;94274.25;5133080;27;20434;-55
2024/01/08 10:49:20;;;;;;;0.40;0.30;;;;;;;13.96;76.17;94319.84;5135068;27;20442;-55
2024/01/08 10:51:50;;;;;;;0.47;0.37;;;;;;;13.86;78.18;94328.91;5133835;27;20495;-55
2024/01/08 10:54:20;;;;;;;0.40;0.40;;;;;;;13.83;80.17;94321.59;5134665;27;20597;-54
2024/01/08 10:56:58;;;;;;;0.70;0.50;;;;;;;13.80;78.00;94321.41;5108423;27;20911;-54
2024/01/08 10:59:28;;;;;;;0.70;0.50;;;;;;;13.47;79.29;94267.84;5133763;27;20982;-56
2024/01/08 11:01:56;;;;;;;0.40;0.30;;;;;;;13.55;80.81;94320.31;5133702;27;20969;-54
2024/01/08 11:04:25;;;;;;;0.97;0.97;;;;;;;13.52;79.13;94330.78;5133969;27;20454;-54
2024/01/08 11:06:57;;;;;;;0.63;0.63;;;;;;;13.64;78.18;94321.09;5134254;27;20515;-54
2024/01/08 11:09:26;;;;;;;0.77;0.60;;;;;;;13.29;75.92;94298.16;5133443;27;20933;-54
2024/01/08 11:11:56;;;;;;;0.40;0.30;;;;;;;13.45;72.62;94325.13;5134610;27;20460;-55
2024/01/08 11:14:25;;;;;;;0.60;0.60;;;;;;;13.09;74.82;94325.34;5134036;27;20461;-55
2024/01/08 11:16:55;;;;;;;0.30;0.30;;;;;;;13.36;76.37;94331.22;5133895;27;20445;-55
2024/01/08 11:19:26;;;;;;;0.50;0.40;;;;;;;13.16;76.81;94318.50;5133456;27;20437;-55
2024/01/08 11:21:56;;;;;;;0.80;0.80;;;;;;;13.29;77.20;94328.22;5134125;27;20460;-54
2024/01/08 11:24:25;;;;;;;0.50;0.40;;;;;;;12.97;80.33;94330.44;5107093;27;20441;-54
2024/01/08 11:26:54;;;;;;;0.70;0.60;;;;;;;13.00;80.31;94303.25;5134350;27;20439;-55
2024/01/08 11:29:24;;;;;;;0.30;0.20;;;;;;;13.14;81.12;94319.88;5125271;27;20454;-54
2024/01/08 11:32:32;;;;;;;0.50;0.30;;;;;;;13.26;81.26;94312.88;5133134;27;20433;-54
2024/01/08 11:35:03;;;;;;;0.40;0.37;;;;;;;12.32;79.28;94194.81;5057404;27;20579;-55
2024/01/08 11:37:36;;;;;;;0.40;0.30;;;;;;;13.38;80.74;94328.25;5133969;27;20439;-56
2024/01/08 11:40:16;;;;;;;0.40;0.30;;;;;;;13.40;80.57;94331.41;5133353;27;20450;-55
2024/01/08 11:42:46;;;;;;;0.40;0.40;;;;;;;13.39;81.17;94324.50;5132262;27;20473;-54